Quartz Hill, California
Current Conditions -  °F | °C
As of 9:53 PM on Saturday 22 Nov 2014 (Local Time) from KPMD Reporting Station
Clear Clear  
Wind Chill: 57°   Ceiling: Unl
Heat Index: 57°   Visibility: 10mi
Dew Point: 45°   Wind: 23mph
Humidity: 64%   Direction: 280°W
Pressure: 30.07"   Gusts: 26mph
Location:  34.5959°N, 118.235°W
Report Text: KPMD 230553Z AUTO 28020G23KT 10SM CLR 14/07 A3007 RMK AO2 PK WND 28027/0531 SLP165 T01390072 10178 20139 50011
Loading
Personal Weather Stations






























Interactive Weather Map New forecast layout! Learn more

10-Day Weather Forecast

Advertisements
Track Severe Weather on mobile